sensor_id;sensor_type;location;lat;lon;timestamp;P1;durP1;ratioP1;P2;durP2;ratioP2
77117;SDS011;66072;50.238;19.228;2024-02-15T00:00:02;36.70;;;22.50;;
77117;SDS011;66072;50.238;19.228;2024-02-15T00:02:31;44.80;;;26.20;;
77117;SDS011;66072;50.238;19.228;2024-02-15T00:04:58;40.10;;;24.10;;
77117;SDS011;66072;50.238;19.228;2024-02-15T00:07:26;35.30;;;21.30;;
77117;SDS011;66072;50.238;19.228;2024-02-15T00:09:54;35.90;;;22.50;;
77117;SDS011;66072;50.238;19.228;2024-02-15T00:12:22;33.90;;;20.90;;
77117;SDS011;66072;50.238;19.228;2024-02-15T00:14:49;34.40;;;18.90;;
77117;SDS011;66072;50.238;19.228;2024-02-15T00:17:17;37.40;;;20.90;;
77117;SDS011;66072;50.238;19.228;2024-02-15T00:19:45;31.60;;;20.20;;
77117;SDS011;66072;50.238;19.228;2024-02-15T00:22:13;36.80;;;23.20;;
77117;SDS011;66072;50.238;19.228;2024-02-15T00:24:40;33.70;;;21.30;;
77117;SDS011;66072;50.238;19.228;2024-02-15T00:27:08;36.60;;;22.10;;
77117;SDS011;66072;50.238;19.228;2024-02-15T00:29:36;32.70;;;20.60;;
77117;SDS011;66072;50.238;19.228;2024-02-15T00:32:04;31.60;;;19.60;;
77117;SDS011;66072;50.238;19.228;2024-02-15T00:34:32;33.20;;;20.30;;
77117;SDS011;66072;50.238;19.228;2024-02-15T00:37:00;35.10;;;22.30;;
77117;SDS011;66072;50.238;19.228;2024-02-15T00:39:28;30.40;;;18.50;;
77117;SDS011;66072;50.238;19.228;2024-02-15T00:41:55;36.90;;;23.40;;
77117;SDS011;66072;50.238;19.228;2024-02-15T00:44:23;35.10;;;21.70;;
77117;SDS011;66072;50.238;19.228;2024-02-15T00:46:51;31.20;;;20.30;;
77117;SDS011;66072;50.238;19.228;2024-02-15T00:49:19;36.80;;;19.80;;
77117;SDS011;66072;50.238;19.228;2024-02-15T00:51:47;32.50;;;19.20;;
77117;SDS011;66072;50.238;19.228;2024-02-15T00:54:15;31.20;;;20.00;;
77117;SDS011;66072;50.238;19.228;2024-02-15T00:56:43;32.70;;;21.30;;
77117;SDS011;66072;50.238;19.228;2024-02-15T00:59:10;31.00;;;19.80;;
77117;SDS011;66072;50.238;19.228;2024-02-15T01:01:38;32.80;;;19.90;;
77117;SDS011;66072;50.238;19.228;2024-02-15T01:04:06;33.40;;;20.50;;
77117;SDS011;66072;50.238;19.228;2024-02-15T01:06:34;33.10;;;21.30;;
77117;SDS011;66072;50.238;19.228;2024-02-15T01:09:02;33.80;;;20.00;;
77117;SDS011;66072;50.238;19.228;2024-02-15T01:11:30;28.80;;;19.40;;
77117;SDS011;66072;50.238;19.228;2024-02-15T01:13:58;33.50;;;21.70;;
77117;SDS011;66072;50.238;19.228;2024-02-15T01:16:26;36.50;;;22.40;;
77117;SDS011;66072;50.238;19.228;2024-02-15T01:18:54;40.30;;;22.30;;
77117;SDS011;66072;50.238;19.228;2024-02-15T01:21:21;31.50;;;19.60;;
77117;SDS011;66072;50.238;19.228;2024-02-15T01:23:49;31.80;;;19.40;;
77117;SDS011;66072;50.238;19.228;2024-02-15T01:26:17;37.70;;;21.90;;
77117;SDS011;66072;50.238;19.228;2024-02-15T01:28:45;25.50;;;16.90;;
77117;SDS011;66072;50.238;19.228;2024-02-15T01:31:13;30.90;;;17.60;;
77117;SDS011;66072;50.238;19.228;2024-02-15T01:33:41;29.50;;;17.90;;
77117;SDS011;66072;50.238;19.228;2024-02-15T01:36:08;27.90;;;17.60;;
77117;SDS011;66072;50.238;19.228;2024-02-15T01:38:40;28.30;;;18.80;;
77117;SDS011;66072;50.238;19.228;2024-02-15T01:41:09;29.60;;;16.20;;
77117;SDS011;66072;50.238;19.228;2024-02-15T01:43:36;23.60;;;15.50;;
77117;SDS011;66072;50.238;19.228;2024-02-15T01:46:07;26.60;;;15.70;;
77117;SDS011;66072;50.238;19.228;2024-02-15T01:48:37;28.20;;;18.10;;
77117;SDS011;66072;50.238;19.228;2024-02-15T01:51:08;26.90;;;17.50;;
77117;SDS011;66072;50.238;19.228;2024-02-15T01:53:39;28.60;;;17.50;;
77117;SDS011;66072;50.238;19.228;2024-02-15T01:58:39;31.10;;;17.00;;
77117;SDS011;66072;50.238;19.228;2024-02-15T02:01:08;27.90;;;16.00;;
77117;SDS011;66072;50.238;19.228;2024-02-15T02:03:35;24.10;;;14.70;;
77117;SDS011;66072;50.238;19.228;2024-02-15T02:06:03;22.90;;;14.00;;
77117;SDS011;66072;50.238;19.228;2024-02-15T02:08:31;25.40;;;14.30;;
77117;SDS011;66072;50.238;19.228;2024-02-15T02:11:00;19.40;;;13.00;;
77117;SDS011;66072;50.238;19.228;2024-02-15T02:13:28;23.00;;;14.70;;
77117;SDS011;66072;50.238;19.228;2024-02-15T02:15:58;23.70;;;14.80;;
77117;SDS011;66072;50.238;19.228;2024-02-15T02:18:26;22.90;;;14.00;;
77117;SDS011;66072;50.238;19.228;2024-02-15T02:20:53;23.60;;;14.60;;
77117;SDS011;66072;50.238;19.228;2024-02-15T02:23:21;25.50;;;14.70;;
77117;SDS011;66072;50.238;19.228;2024-02-15T02:25:54;24.40;;;14.60;;
77117;SDS011;66072;50.238;19.228;2024-02-15T02:28:23;23.30;;;15.40;;
77117;SDS011;66072;50.238;19.228;2024-02-15T02:30:51;23.30;;;13.80;;
77117;SDS011;66072;50.238;19.228;2024-02-15T02:33:18;21.80;;;13.50;;
77117;SDS011;66072;50.238;19.228;2024-02-15T02:35:48;20.50;;;12.70;;
77117;SDS011;66072;50.238;19.228;2024-02-15T02:38:16;24.10;;;14.70;;
77117;SDS011;66072;50.238;19.228;2024-02-15T02:40:44;25.60;;;15.60;;
77117;SDS011;66072;50.238;19.228;2024-02-15T02:43:11;28.50;;;15.80;;
77117;SDS011;66072;50.238;19.228;2024-02-15T02:45:39;26.20;;;15.80;;
77117;SDS011;66072;50.238;19.228;2024-02-15T02:48:07;26.80;;;15.80;;
77117;SDS011;66072;50.238;19.228;2024-02-15T02:50:35;20.60;;;15.10;;
77117;SDS011;66072;50.238;19.228;2024-02-15T02:53:03;21.80;;;14.60;;
77117;SDS011;66072;50.238;19.228;2024-02-15T02:55:30;24.40;;;16.00;;
77117;SDS011;66072;50.238;19.228;2024-02-15T02:57:58;27.60;;;16.60;;
77117;SDS011;66072;50.238;19.228;2024-02-15T03:00:26;25.20;;;16.50;;
77117;SDS011;66072;50.238;19.228;2024-02-15T03:02:54;28.30;;;17.60;;
77117;SDS011;66072;50.238;19.228;2024-02-15T03:05:21;27.40;;;18.10;;
77117;SDS011;66072;50.238;19.228;2024-02-15T03:07:49;29.20;;;19.30;;
77117;SDS011;66072;50.238;19.228;2024-02-15T03:10:17;31.00;;;18.80;;
77117;SDS011;66072;50.238;19.228;2024-02-15T03:12:45;30.30;;;18.30;;
77117;SDS011;66072;50.238;19.228;2024-02-15T03:15:13;31.70;;;18.90;;
77117;SDS011;66072;50.238;19.228;2024-02-15T03:17:42;32.70;;;19.20;;
77117;SDS011;66072;50.238;19.228;2024-02-15T03:20:11;28.30;;;18.60;;
77117;SDS011;66072;50.238;19.228;2024-02-15T03:22:39;27.20;;;16.50;;
77117;SDS011;66072;50.238;19.228;2024-02-15T03:25:07;27.80;;;16.20;;
77117;SDS011;66072;50.238;19.228;2024-02-15T03:27:35;31.70;;;18.50;;
77117;SDS011;66072;50.238;19.228;2024-02-15T03:30:04;28.10;;;17.70;;
77117;SDS011;66072;50.238;19.228;2024-02-15T03:32:32;27.70;;;17.80;;
77117;SDS011;66072;50.238;19.228;2024-02-15T03:35:00;28.20;;;17.60;;
77117;SDS011;66072;50.238;19.228;2024-02-15T03:37:28;25.10;;;16.70;;
77117;SDS011;66072;50.238;19.228;2024-02-15T03:39:55;25.20;;;16.10;;
77117;SDS011;66072;50.238;19.228;2024-02-15T03:42:23;25.20;;;16.30;;
77117;SDS011;66072;50.238;19.228;2024-02-15T03:44:51;23.30;;;15.00;;
77117;SDS011;66072;50.238;19.228;2024-02-15T03:47:19;25.80;;;15.10;;
77117;SDS011;66072;50.238;19.228;2024-02-15T03:49:46;23.00;;;14.20;;
77117;SDS011;66072;50.238;19.228;2024-02-15T03:52:14;26.00;;;15.80;;
77117;SDS011;66072;50.238;19.228;2024-02-15T03:54:42;26.20;;;15.10;;
77117;SDS011;66072;50.238;19.228;2024-02-15T03:57:09;31.40;;;16.60;;
77117;SDS011;66072;50.238;19.228;2024-02-15T03:59:37;25.20;;;15.30;;
77117;SDS011;66072;50.238;19.228;2024-02-15T04:02:05;26.00;;;16.10;;
77117;SDS011;66072;50.238;19.228;2024-02-15T04:04:32;25.00;;;14.80;;
77117;SDS011;66072;50.238;19.228;2024-02-15T04:07:00;26.50;;;16.30;;
77117;SDS011;66072;50.238;19.228;2024-02-15T04:09:28;23.70;;;16.30;;
77117;SDS011;66072;50.238;19.228;2024-02-15T04:11:56;24.90;;;15.00;;
77117;SDS011;66072;50.238;19.228;2024-02-15T04:14:23;30.90;;;16.70;;
77117;SDS011;66072;50.238;19.228;2024-02-15T04:16:51;26.50;;;16.60;;
77117;SDS011;66072;50.238;19.228;2024-02-15T04:19:19;30.10;;;18.30;;
77117;SDS011;66072;50.238;19.228;2024-02-15T04:21:46;26.70;;;16.90;;
77117;SDS011;66072;50.238;19.228;2024-02-15T04:24:14;28.40;;;17.70;;
77117;SDS011;66072;50.238;19.228;2024-02-15T04:26:42;29.80;;;18.80;;
77117;SDS011;66072;50.238;19.228;2024-02-15T04:29:10;30.30;;;17.50;;
77117;SDS011;66072;50.238;19.228;2024-02-15T04:31:37;26.80;;;16.60;;
77117;SDS011;66072;50.238;19.228;2024-02-15T04:34:05;26.00;;;16.60;;
77117;SDS011;66072;50.238;19.228;2024-02-15T04:36:33;27.70;;;17.30;;
77117;SDS011;66072;50.238;19.228;2024-02-15T04:39:01;26.80;;;16.00;;
77117;SDS011;66072;50.238;19.228;2024-02-15T04:41:29;28.70;;;17.50;;
77117;SDS011;66072;50.238;19.228;2024-02-15T04:43:57;25.30;;;16.50;;
77117;SDS011;66072;50.238;19.228;2024-02-15T04:46:25;23.10;;;14.90;;
77117;SDS011;66072;50.238;19.228;2024-02-15T04:48:53;25.40;;;16.20;;
77117;SDS011;66072;50.238;19.228;2024-02-15T04:51:20;24.40;;;15.50;;
77117;SDS011;66072;50.238;19.228;2024-02-15T04:53:48;26.00;;;16.70;;
77117;SDS011;66072;50.238;19.228;2024-02-15T04:56:16;25.50;;;15.70;;
77117;SDS011;66072;50.238;19.228;2024-02-15T04:58:43;26.20;;;16.40;;
77117;SDS011;66072;50.238;19.228;2024-02-15T05:01:14;26.10;;;15.80;;
77117;SDS011;66072;50.238;19.228;2024-02-15T05:03:43;27.60;;;15.50;;
77117;SDS011;66072;50.238;19.228;2024-02-15T05:06:11;28.10;;;15.80;;
77117;SDS011;66072;50.238;19.228;2024-02-15T05:08:39;31.20;;;19.00;;
77117;SDS011;66072;50.238;19.228;2024-02-15T05:11:07;30.90;;;18.50;;
77117;SDS011;66072;50.238;19.228;2024-02-15T05:13:36;35.60;;;21.80;;
77117;SDS011;66072;50.238;19.228;2024-02-15T05:16:04;31.40;;;20.90;;
77117;SDS011;66072;50.238;19.228;2024-02-15T05:18:32;33.20;;;21.10;;
77117;SDS011;66072;50.238;19.228;2024-02-15T05:21:00;35.50;;;21.70;;
77117;SDS011;66072;50.238;19.228;2024-02-15T05:23:28;34.90;;;22.30;;
77117;SDS011;66072;50.238;19.228;2024-02-15T05:25:56;38.20;;;23.00;;
77117;SDS011;66072;50.238;19.228;2024-02-15T05:28:23;38.50;;;23.20;;
77117;SDS011;66072;50.238;19.228;2024-02-15T05:30:51;38.70;;;22.60;;
77117;SDS011;66072;50.238;19.228;2024-02-15T05:33:19;33.00;;;20.50;;
77117;SDS011;66072;50.238;19.228;2024-02-15T05:35:47;28.50;;;18.70;;
77117;SDS011;66072;50.238;19.228;2024-02-15T05:38:15;33.90;;;20.80;;
77117;SDS011;66072;50.238;19.228;2024-02-15T05:40:43;31.80;;;20.40;;
77117;SDS011;66072;50.238;19.228;2024-02-15T05:43:11;31.20;;;19.50;;
77117;SDS011;66072;50.238;19.228;2024-02-15T05:45:38;36.10;;;20.50;;
77117;SDS011;66072;50.238;19.228;2024-02-15T05:48:06;35.90;;;21.40;;
77117;SDS011;66072;50.238;19.228;2024-02-15T05:50:35;31.20;;;19.30;;
77117;SDS011;66072;50.238;19.228;2024-02-15T05:53:03;32.70;;;18.60;;
77117;SDS011;66072;50.238;19.228;2024-02-15T05:55:30;27.00;;;18.50;;
77117;SDS011;66072;50.238;19.228;2024-02-15T05:57:58;32.20;;;19.70;;
77117;SDS011;66072;50.238;19.228;2024-02-15T06:00:26;27.30;;;17.80;;
77117;SDS011;66072;50.238;19.228;2024-02-15T06:02:54;26.10;;;17.40;;
77117;SDS011;66072;50.238;19.228;2024-02-15T06:05:21;31.90;;;18.70;;
77117;SDS011;66072;50.238;19.228;2024-02-15T06:07:49;28.90;;;17.80;;
77117;SDS011;66072;50.238;19.228;2024-02-15T06:10:17;28.80;;;19.00;;
77117;SDS011;66072;50.238;19.228;2024-02-15T06:12:45;27.90;;;17.90;;
77117;SDS011;66072;50.238;19.228;2024-02-15T06:15:13;29.30;;;16.50;;
77117;SDS011;66072;50.238;19.228;2024-02-15T06:17:42;24.40;;;17.10;;
77117;SDS011;66072;50.238;19.228;2024-02-15T06:20:11;28.30;;;18.30;;
77117;SDS011;66072;50.238;19.228;2024-02-15T06:22:41;31.60;;;18.20;;
77117;SDS011;66072;50.238;19.228;2024-02-15T06:25:09;28.40;;;17.60;;
77117;SDS011;66072;50.238;19.228;2024-02-15T06:27:38;31.10;;;19.00;;
77117;SDS011;66072;50.238;19.228;2024-02-15T06:30:09;29.30;;;18.00;;
77117;SDS011;66072;50.238;19.228;2024-02-15T06:32:37;26.90;;;16.30;;
77117;SDS011;66072;50.238;19.228;2024-02-15T06:35:06;30.00;;;18.30;;
77117;SDS011;66072;50.238;19.228;2024-02-15T06:37:37;28.00;;;16.90;;
77117;SDS011;66072;50.238;19.228;2024-02-15T06:40:05;29.00;;;16.10;;
77117;SDS011;66072;50.238;19.228;2024-02-15T06:42:33;27.00;;;16.70;;
77117;SDS011;66072;50.238;19.228;2024-02-15T06:45:01;28.50;;;16.80;;
77117;SDS011;66072;50.238;19.228;2024-02-15T06:47:29;30.70;;;15.70;;
77117;SDS011;66072;50.238;19.228;2024-02-15T06:49:57;24.50;;;14.90;;
77117;SDS011;66072;50.238;19.228;2024-02-15T06:52:24;24.70;;;15.90;;
77117;SDS011;66072;50.238;19.228;2024-02-15T06:54:53;25.60;;;16.10;;
77117;SDS011;66072;50.238;19.228;2024-02-15T06:57:20;25.40;;;15.80;;
77117;SDS011;66072;50.238;19.228;2024-02-15T06:59:51;28.70;;;16.30;;
77117;SDS011;66072;50.238;19.228;2024-02-15T07:02:19;27.10;;;16.10;;
77117;SDS011;66072;50.238;19.228;2024-02-15T07:04:47;24.80;;;14.10;;
77117;SDS011;66072;50.238;19.228;2024-02-15T07:07:14;22.60;;;14.70;;
77117;SDS011;66072;50.238;19.228;2024-02-15T07:09:42;22.70;;;15.40;;
77117;SDS011;66072;50.238;19.228;2024-02-15T07:12:10;24.30;;;16.00;;
77117;SDS011;66072;50.238;19.228;2024-02-15T07:14:38;25.30;;;17.70;;
77117;SDS011;66072;50.238;19.228;2024-02-15T07:17:05;24.70;;;15.80;;
77117;SDS011;66072;50.238;19.228;2024-02-15T07:19:33;22.40;;;13.80;;
77117;SDS011;66072;50.238;19.228;2024-02-15T07:22:01;23.10;;;14.90;;
77117;SDS011;66072;50.238;19.228;2024-02-15T07:24:29;25.70;;;16.10;;
77117;SDS011;66072;50.238;19.228;2024-02-15T07:26:56;22.00;;;13.50;;
77117;SDS011;66072;50.238;19.228;2024-02-15T07:29:24;26.00;;;16.10;;
77117;SDS011;66072;50.238;19.228;2024-02-15T07:31:52;24.30;;;15.50;;
77117;SDS011;66072;50.238;19.228;2024-02-15T07:34:20;22.50;;;13.90;;
77117;SDS011;66072;50.238;19.228;2024-02-15T07:36:48;24.10;;;15.30;;
77117;SDS011;66072;50.238;19.228;2024-02-15T07:39:17;28.50;;;16.70;;
77117;SDS011;66072;50.238;19.228;2024-02-15T07:41:45;27.40;;;17.10;;
77117;SDS011;66072;50.238;19.228;2024-02-15T07:44:12;27.10;;;17.10;;
77117;SDS011;66072;50.238;19.228;2024-02-15T07:46:41;27.50;;;17.10;;
77117;SDS011;66072;50.238;19.228;2024-02-15T07:49:09;29.70;;;18.30;;
77117;SDS011;66072;50.238;19.228;2024-02-15T07:51:37;28.90;;;18.40;;
77117;SDS011;66072;50.238;19.228;2024-02-15T07:54:04;29.40;;;17.70;;
77117;SDS011;66072;50.238;19.228;2024-02-15T07:56:32;18.40;;;11.90;;
77117;SDS011;66072;50.238;19.228;2024-02-15T07:59:00;18.90;;;12.20;;
77117;SDS011;66072;50.238;19.228;2024-02-15T08:01:28;17.30;;;10.80;;
77117;SDS011;66072;50.238;19.228;2024-02-15T08:03:56;19.60;;;11.20;;
77117;SDS011;66072;50.238;19.228;2024-02-15T08:06:23;16.50;;;10.80;;
77117;SDS011;66072;50.238;19.228;2024-02-15T08:08:51;21.60;;;13.90;;
77117;SDS011;66072;50.238;19.228;2024-02-15T08:11:19;21.30;;;14.10;;
77117;SDS011;66072;50.238;19.228;2024-02-15T08:13:47;23.60;;;14.20;;
77117;SDS011;66072;50.238;19.228;2024-02-15T08:16:17;23.20;;;14.10;;
77117;SDS011;66072;50.238;19.228;2024-02-15T08:18:46;22.20;;;13.30;;
77117;SDS011;66072;50.238;19.228;2024-02-15T08:21:14;19.70;;;12.20;;
77117;SDS011;66072;50.238;19.228;2024-02-15T08:23:42;16.30;;;10.90;;
77117;SDS011;66072;50.238;19.228;2024-02-15T08:26:10;16.70;;;11.10;;
77117;SDS011;66072;50.238;19.228;2024-02-15T08:28:38;20.00;;;12.20;;
77117;SDS011;66072;50.238;19.228;2024-02-15T08:31:06;18.60;;;13.10;;
77117;SDS011;66072;50.238;19.228;2024-02-15T08:33:33;22.20;;;11.50;;
77117;SDS011;66072;50.238;19.228;2024-02-15T08:36:01;14.60;;;11.10;;
77117;SDS011;66072;50.238;19.228;2024-02-15T08:38:29;16.80;;;10.00;;
77117;SDS011;66072;50.238;19.228;2024-02-15T08:40:57;21.40;;;11.90;;
77117;SDS011;66072;50.238;19.228;2024-02-15T08:43:25;23.60;;;14.00;;
77117;SDS011;66072;50.238;19.228;2024-02-15T08:45:53;22.20;;;14.20;;
77117;SDS011;66072;50.238;19.228;2024-02-15T08:48:20;18.40;;;11.90;;
77117;SDS011;66072;50.238;19.228;2024-02-15T08:50:48;22.10;;;14.10;;
77117;SDS011;66072;50.238;19.228;2024-02-15T08:53:16;18.40;;;12.30;;
77117;SDS011;66072;50.238;19.228;2024-02-15T08:55:44;19.10;;;11.90;;
77117;SDS011;66072;50.238;19.228;2024-02-15T08:58:12;17.90;;;12.20;;
77117;SDS011;66072;50.238;19.228;2024-02-15T09:00:39;18.80;;;11.40;;
77117;SDS011;66072;50.238;19.228;2024-02-15T09:03:07;16.50;;;10.00;;
77117;SDS011;66072;50.238;19.228;2024-02-15T09:05:35;17.10;;;9.80;;
77117;SDS011;66072;50.238;19.228;2024-02-15T09:08:03;16.00;;;10.20;;
77117;SDS011;66072;50.238;19.228;2024-02-15T09:10:31;16.90;;;11.80;;
77117;SDS011;66072;50.238;19.228;2024-02-15T09:12:59;16.40;;;10.20;;
77117;SDS011;66072;50.238;19.228;2024-02-15T09:15:27;16.10;;;9.50;;
77117;SDS011;66072;50.238;19.228;2024-02-15T09:17:55;17.30;;;11.90;;
77117;SDS011;66072;50.238;19.228;2024-02-15T09:20:23;17.10;;;11.10;;
77117;SDS011;66072;50.238;19.228;2024-02-15T09:22:51;13.20;;;8.90;;
77117;SDS011;66072;50.238;19.228;2024-02-15T09:25:20;16.30;;;9.70;;
77117;SDS011;66072;50.238;19.228;2024-02-15T09:27:49;13.00;;;8.50;;
77117;SDS011;66072;50.238;19.228;2024-02-15T09:30:17;20.10;;;10.40;;
77117;SDS011;66072;50.238;19.228;2024-02-15T09:32:45;14.00;;;8.70;;
77117;SDS011;66072;50.238;19.228;2024-02-15T09:35:13;14.20;;;9.60;;
77117;SDS011;66072;50.238;19.228;2024-02-15T09:37:45;15.70;;;8.60;;
77117;SDS011;66072;50.238;19.228;2024-02-15T09:40:14;14.00;;;8.50;;
77117;SDS011;66072;50.238;19.228;2024-02-15T09:42:43;16.40;;;8.10;;
77117;SDS011;66072;50.238;19.228;2024-02-15T09:45:12;12.50;;;7.60;;
77117;SDS011;66072;50.238;19.228;2024-02-15T09:47:41;10.90;;;7.00;;
77117;SDS011;66072;50.238;19.228;2024-02-15T09:50:14;12.00;;;6.70;;
77117;SDS011;66072;50.238;19.228;2024-02-15T09:52:43;9.40;;;5.00;;
77117;SDS011;66072;50.238;19.228;2024-02-15T09:55:14;9.30;;;5.50;;
77117;SDS011;66072;50.238;19.228;2024-02-15T09:57:42;9.30;;;5.10;;
77117;SDS011;66072;50.238;19.228;2024-02-15T10:00:13;7.70;;;4.30;;
77117;SDS011;66072;50.238;19.228;2024-02-15T10:02:46;8.20;;;5.50;;
77117;SDS011;66072;50.238;19.228;2024-02-15T10:05:17;9.30;;;5.70;;
77117;SDS011;66072;50.238;19.228;2024-02-15T10:07:45;8.50;;;5.50;;
77117;SDS011;66072;50.238;19.228;2024-02-15T10:10:20;9.80;;;5.70;;
77117;SDS011;66072;50.238;19.228;2024-02-15T10:12:54;10.10;;;6.30;;
77117;SDS011;66072;50.238;19.228;2024-02-15T10:15:30;9.70;;;5.80;;
77117;SDS011;66072;50.238;19.228;2024-02-15T10:18:04;9.90;;;6.40;;
77117;SDS011;66072;50.238;19.228;2024-02-15T10:20:34;11.80;;;6.90;;
77117;SDS011;66072;50.238;19.228;2024-02-15T10:25:30;14.60;;;7.50;;
77117;SDS011;66072;50.238;19.228;2024-02-15T10:28:07;16.30;;;8.90;;
77117;SDS011;66072;50.238;19.228;2024-02-15T10:30:37;11.90;;;8.10;;
77117;SDS011;66072;50.238;19.228;2024-02-15T10:33:07;16.60;;;9.70;;
77117;SDS011;66072;50.238;19.228;2024-02-15T10:35:35;14.50;;;8.80;;
77117;SDS011;66072;50.238;19.228;2024-02-15T10:38:10;13.80;;;8.10;;
77117;SDS011;66072;50.238;19.228;2024-02-15T10:40:40;13.50;;;8.40;;
77117;SDS011;66072;50.238;19.228;2024-02-15T10:43:08;12.50;;;7.70;;
77117;SDS011;66072;50.238;19.228;2024-02-15T10:45:37;14.80;;;9.20;;
77117;SDS011;66072;50.238;19.228;2024-02-15T10:48:07;12.70;;;8.50;;
77117;SDS011;66072;50.238;19.228;2024-02-15T10:50:39;12.70;;;8.20;;
77117;SDS011;66072;50.238;19.228;2024-02-15T10:56:15;9.60;;;5.70;;
77117;SDS011;66072;50.238;19.228;2024-02-15T10:58:48;9.50;;;4.90;;
77117;SDS011;66072;50.238;19.228;2024-02-15T11:01:19;6.30;;;3.80;;
77117;SDS011;66072;50.238;19.228;2024-02-15T11:03:51;8.30;;;3.80;;
77117;SDS011;66072;50.238;19.228;2024-02-15T11:06:24;8.20;;;4.40;;
77117;SDS011;66072;50.238;19.228;2024-02-15T11:09:01;7.00;;;4.60;;
77117;SDS011;66072;50.238;19.228;2024-02-15T11:11:30;6.60;;;4.10;;
77117;SDS011;66072;50.238;19.228;2024-02-15T11:16:51;6.60;;;3.40;;
77117;SDS011;66072;50.238;19.228;2024-02-15T11:22:08;5.20;;;3.00;;
77117;SDS011;66072;50.238;19.228;2024-02-15T11:24:37;6.20;;;3.30;;
77117;SDS011;66072;50.238;19.228;2024-02-15T11:27:23;4.30;;;2.80;;
77117;SDS011;66072;50.238;19.228;2024-02-15T11:29:53;6.90;;;3.10;;
77117;SDS011;66072;50.238;19.228;2024-02-15T11:35:14;5.00;;;3.10;;
77117;SDS011;66072;50.238;19.228;2024-02-15T11:42:48;5.90;;;3.50;;
77117;SDS011;66072;50.238;19.228;2024-02-15T11:45:16;6.20;;;3.40;;
77117;SDS011;66072;50.238;19.228;2024-02-15T11:47:46;4.60;;;3.20;;
77117;SDS011;66072;50.238;19.228;2024-02-15T11:50:16;4.80;;;2.60;;
77117;SDS011;66072;50.238;19.228;2024-02-15T11:52:49;5.60;;;2.70;;
77117;SDS011;66072;50.238;19.228;2024-02-15T11:55:18;5.30;;;3.00;;
77117;SDS011;66072;50.238;19.228;2024-02-15T11:57:55;4.90;;;3.10;;
77117;SDS011;66072;50.238;19.228;2024-02-15T12:00:23;5.40;;;3.30;;
77117;SDS011;66072;50.238;19.228;2024-02-15T12:02:51;5.30;;;3.40;;
77117;SDS011;66072;50.238;19.228;2024-02-15T12:05:19;5.60;;;3.40;;
77117;SDS011;66072;50.238;19.228;2024-02-15T12:07:47;4.90;;;2.70;;
77117;SDS011;66072;50.238;19.228;2024-02-15T12:10:18;5.20;;;2.90;;
77117;SDS011;66072;50.238;19.228;2024-02-15T12:12:53;6.10;;;3.10;;
77117;SDS011;66072;50.238;19.228;2024-02-15T12:15:21;6.50;;;3.90;;
77117;SDS011;66072;50.238;19.228;2024-02-15T12:17:50;6.70;;;3.60;;
77117;SDS011;66072;50.238;19.228;2024-02-15T12:20:17;7.10;;;3.50;;
77117;SDS011;66072;50.238;19.228;2024-02-15T12:22:46;6.20;;;3.60;;
77117;SDS011;66072;50.238;19.228;2024-02-15T12:25:15;7.20;;;3.60;;
77117;SDS011;66072;50.238;19.228;2024-02-15T12:27:44;7.70;;;3.30;;
77117;SDS011;66072;50.238;19.228;2024-02-15T12:30:15;6.20;;;4.00;;
77117;SDS011;66072;50.238;19.228;2024-02-15T12:32:44;5.90;;;3.70;;
77117;SDS011;66072;50.238;19.228;2024-02-15T12:35:13;8.70;;;4.50;;
77117;SDS011;66072;50.238;19.228;2024-02-15T12:38:09;5.20;;;4.20;;
77117;SDS011;66072;50.238;19.228;2024-02-15T12:40:36;5.20;;;3.60;;
77117;SDS011;66072;50.238;19.228;2024-02-15T12:43:10;5.20;;;3.10;;
77117;SDS011;66072;50.238;19.228;2024-02-15T12:45:39;7.40;;;4.00;;
77117;SDS011;66072;50.238;19.228;2024-02-15T12:48:08;6.50;;;3.50;;
77117;SDS011;66072;50.238;19.228;2024-02-15T12:50:36;5.70;;;4.00;;
77117;SDS011;66072;50.238;19.228;2024-02-15T12:53:04;4.80;;;3.20;;
77117;SDS011;66072;50.238;19.228;2024-02-15T12:55:32;4.60;;;3.20;;
77117;SDS011;66072;50.238;19.228;2024-02-15T12:58:02;8.10;;;3.60;;
77117;SDS011;66072;50.238;19.228;2024-02-15T13:03:01;6.30;;;4.50;;
77117;SDS011;66072;50.238;19.228;2024-02-15T13:05:30;7.60;;;4.10;;
77117;SDS011;66072;50.238;19.228;2024-02-15T13:07:59;6.20;;;4.10;;
77117;SDS011;66072;50.238;19.228;2024-02-15T13:10:30;7.60;;;4.00;;
77117;SDS011;66072;50.238;19.228;2024-02-15T13:12:58;8.70;;;3.50;;
77117;SDS011;66072;50.238;19.228;2024-02-15T13:15:27;7.80;;;3.90;;
77117;SDS011;66072;50.238;19.228;2024-02-15T13:17:55;6.80;;;3.30;;
77117;SDS011;66072;50.238;19.228;2024-02-15T13:20:24;7.20;;;3.90;;
77117;SDS011;66072;50.238;19.228;2024-02-15T13:22:52;6.30;;;3.00;;
77117;SDS011;66072;50.238;19.228;2024-02-15T13:25:19;4.80;;;3.30;;
77117;SDS011;66072;50.238;19.228;2024-02-15T13:27:47;6.60;;;3.30;;
77117;SDS011;66072;50.238;19.228;2024-02-15T13:30:15;5.50;;;3.50;;
77117;SDS011;66072;50.238;19.228;2024-02-15T13:32:43;6.30;;;3.60;;
77117;SDS011;66072;50.238;19.228;2024-02-15T13:35:11;4.40;;;2.90;;
77117;SDS011;66072;50.238;19.228;2024-02-15T13:40:17;5.20;;;2.60;;
77117;SDS011;66072;50.238;19.228;2024-02-15T13:42:46;4.60;;;3.10;;
77117;SDS011;66072;50.238;19.228;2024-02-15T13:45:15;4.70;;;2.80;;
77117;SDS011;66072;50.238;19.228;2024-02-15T13:47:44;5.50;;;2.70;;
77117;SDS011;66072;50.238;19.228;2024-02-15T13:50:13;5.10;;;2.90;;
77117;SDS011;66072;50.238;19.228;2024-02-15T13:52:42;4.50;;;2.30;;
77117;SDS011;66072;50.238;19.228;2024-02-15T13:55:11;4.70;;;3.00;;
77117;SDS011;66072;50.238;19.228;2024-02-15T13:57:43;4.90;;;2.60;;
77117;SDS011;66072;50.238;19.228;2024-02-15T14:00:12;5.00;;;3.40;;
77117;SDS011;66072;50.238;19.228;2024-02-15T14:02:41;6.00;;;3.40;;
77117;SDS011;66072;50.238;19.228;2024-02-15T14:05:09;5.90;;;3.40;;
77117;SDS011;66072;50.238;19.228;2024-02-15T14:07:37;5.80;;;3.10;;
77117;SDS011;66072;50.238;19.228;2024-02-15T14:10:06;6.90;;;3.00;;
77117;SDS011;66072;50.238;19.228;2024-02-15T14:12:34;7.10;;;3.00;;
77117;SDS011;66072;50.238;19.228;2024-02-15T14:15:02;6.50;;;2.80;;
77117;SDS011;66072;50.238;19.228;2024-02-15T14:17:30;6.10;;;3.10;;
77117;SDS011;66072;50.238;19.228;2024-02-15T14:19:57;4.50;;;2.80;;
77117;SDS011;66072;50.238;19.228;2024-02-15T14:22:25;6.20;;;3.20;;
77117;SDS011;66072;50.238;19.228;2024-02-15T14:24:53;5.60;;;3.20;;
77117;SDS011;66072;50.238;19.228;2024-02-15T14:27:20;5.00;;;2.80;;
77117;SDS011;66072;50.238;19.228;2024-02-15T14:29:48;5.40;;;2.80;;
77117;SDS011;66072;50.238;19.228;2024-02-15T14:32:16;4.70;;;2.90;;
77117;SDS011;66072;50.238;19.228;2024-02-15T14:34:44;5.00;;;3.00;;
77117;SDS011;66072;50.238;19.228;2024-02-15T14:37:11;7.10;;;3.10;;
77117;SDS011;66072;50.238;19.228;2024-02-15T14:39:39;5.10;;;2.60;;
77117;SDS011;66072;50.238;19.228;2024-02-15T14:42:07;4.80;;;2.70;;
77117;SDS011;66072;50.238;19.228;2024-02-15T14:44:37;5.10;;;2.90;;
77117;SDS011;66072;50.238;19.228;2024-02-15T14:47:05;7.70;;;2.80;;
77117;SDS011;66072;50.238;19.228;2024-02-15T14:49:33;5.10;;;3.00;;